createdAt,value
2023-03-30T00:02:53.818Z,7.28
2023-03-30T00:07:56.864Z,6.18
2023-03-30T00:12:59.693Z,4.13
2023-03-30T00:18:03.986Z,4.10
2023-03-30T00:23:06.984Z,3.55
2023-03-30T00:28:09.751Z,3.65
2023-03-30T00:33:16.586Z,2.85
2023-03-30T00:38:20.872Z,2.83
2023-03-30T00:43:24.586Z,2.80
2023-03-30T00:48:32.703Z,3.22
2023-03-30T00:53:38.382Z,3.03
2023-03-30T00:58:43.529Z,2.72
2023-03-30T01:03:49.204Z,2.65
2023-03-30T01:08:52.968Z,2.08
2023-03-30T01:14:00.204Z,2.65
2023-03-30T01:19:25.524Z,2.72
2023-03-30T01:25:08.560Z,2.42
2023-03-30T01:30:27.854Z,3.13
2023-03-30T01:36:14.454Z,2.05
2023-03-30T01:41:29.820Z,2.58
2023-03-30T01:46:37.841Z,2.50
2023-03-30T01:51:48.141Z,2.28
2023-03-30T01:56:56.201Z,2.92
2023-03-30T02:02:04.256Z,2.40
2023-03-30T02:07:11.223Z,2.33
2023-03-30T02:12:15.861Z,2.28
2023-03-30T02:17:24.557Z,2.40
2023-03-30T02:22:29.438Z,2.83
2023-03-30T02:27:35.042Z,3.00
2023-03-30T02:32:42.890Z,3.30
2023-03-30T02:38:11.189Z,3.40
2023-03-30T02:43:39.582Z,4.25
2023-03-30T02:48:58.298Z,4.07
2023-03-30T02:54:12.259Z,3.83
2023-03-30T02:59:43.224Z,4.68
2023-03-30T03:04:47.115Z,4.90
2023-03-30T03:10:21.871Z,5.00
2023-03-30T03:15:26.162Z,4.68
2023-03-30T03:20:41.112Z,4.10
2023-03-30T03:25:44.439Z,3.33
2023-03-30T03:30:51.043Z,2.55
2023-03-30T03:35:59.908Z,2.40
2023-03-30T03:41:04.026Z,2.67
2023-03-30T03:46:09.653Z,2.10
2023-03-30T03:51:12.427Z,3.97
2023-03-30T03:56:15.441Z,3.08
2023-03-30T04:01:19.728Z,2.55
2023-03-30T04:06:22.535Z,2.80
2023-03-30T04:11:26.646Z,2.60
2023-03-30T04:16:52.479Z,2.30
2023-03-30T04:22:13.957Z,2.20
2023-03-30T04:27:42.675Z,2.40
2023-03-30T04:33:16.104Z,2.28
2023-03-30T04:38:36.466Z,2.60
2023-03-30T04:43:59.606Z,2.50
2023-03-30T04:49:21.715Z,2.08
2023-03-30T04:55:02.882Z,1.95
2023-03-30T05:00:09.041Z,1.95
2023-03-30T05:05:31.586Z,2.00
2023-03-30T05:10:52.987Z,2.05
2023-03-30T05:16:16.161Z,2.13
2023-03-30T05:21:23.098Z,2.00
2023-03-30T05:26:46.147Z,2.50
2023-03-30T05:32:12.503Z,2.50
2023-03-30T05:37:39.794Z,2.45
2023-03-30T05:43:09.394Z,2.53
2023-03-30T05:48:32.516Z,2.90
2023-03-30T05:53:59.747Z,2.30
2023-03-30T05:59:31.752Z,2.10
2023-03-30T06:04:53.466Z,2.40
2023-03-30T06:09:59.610Z,1.98
2023-03-30T06:15:05.089Z,2.08
2023-03-30T06:20:27.531Z,2.10
2023-03-30T06:25:32.463Z,1.85
2023-03-30T06:30:35.981Z,1.77
2023-03-30T06:35:46.182Z,1.55
2023-03-30T06:40:51.347Z,2.60
2023-03-30T06:45:57.948Z,1.73
2023-03-30T06:51:02.497Z,2.20
2023-03-30T06:56:08.654Z,1.92
2023-03-30T07:01:18.816Z,1.58
2023-03-30T07:06:40.656Z,2.30
2023-03-30T07:11:45.573Z,1.92
2023-03-30T07:16:49.281Z,1.85
2023-03-30T07:21:52.480Z,1.98
2023-03-30T07:27:01.078Z,2.67
2023-03-30T07:32:04.546Z,2.42
2023-03-30T07:37:07.818Z,1.90
2023-03-30T07:42:12.337Z,1.90
2023-03-30T07:47:16.629Z,2.95
2023-03-30T07:52:20.241Z,2.30
2023-03-30T07:57:32.427Z,2.28
2023-03-30T08:02:36.568Z,2.17
2023-03-30T08:07:39.720Z,2.75
2023-03-30T08:12:52.258Z,2.22
2023-03-30T08:17:55.291Z,2.03
2023-03-30T08:22:58.109Z,2.05
2023-03-30T08:28:02.314Z,2.20
2023-03-30T08:33:05.696Z,1.92
2023-03-30T08:38:09.853Z,1.83
2023-03-30T08:43:37.839Z,1.85
2023-03-30T08:48:42.915Z,2.00
2023-03-30T08:53:45.748Z,1.90
2023-03-30T08:59:00.123Z,1.55
2023-03-30T09:04:12.740Z,1.42
2023-03-30T09:14:33.007Z,1.80
2023-03-30T09:19:41.768Z,1.77
2023-03-30T09:24:44.632Z,1.60
2023-03-30T09:29:51.607Z,1.65
2023-03-30T09:35:00.777Z,1.70
2023-03-30T09:40:19.734Z,2.83
2023-03-30T09:45:28.261Z,2.90
2023-03-30T09:50:31.744Z,2.17
2023-03-30T09:55:36.659Z,2.38
2023-03-30T10:00:41.423Z,2.40
2023-03-30T10:05:44.326Z,2.42
2023-03-30T10:10:53.867Z,2.45
2023-03-30T10:16:04.836Z,2.20
2023-03-30T10:21:17.980Z,2.05
2023-03-30T10:26:21.250Z,2.58
2023-03-30T10:31:28.063Z,1.85
2023-03-30T10:36:33.836Z,1.50
2023-03-30T10:41:39.675Z,1.55
2023-03-30T10:46:44.135Z,1.77
2023-03-30T10:51:57.783Z,2.03
2023-03-30T10:57:08.058Z,1.70
2023-03-30T11:02:31.378Z,2.05
2023-03-30T11:07:39.307Z,2.05
2023-03-30T11:12:45.978Z,2.00
2023-03-30T11:17:56.832Z,1.50
2023-03-30T11:23:11.923Z,1.63
2023-03-30T11:28:23.696Z,1.50
2023-03-30T11:33:35.567Z,1.17
2023-03-30T11:38:46.993Z,1.00
2023-03-30T11:43:50.563Z,1.10
2023-03-30T11:49:10.214Z,1.25
2023-03-30T11:54:38.537Z,1.00
2023-03-30T11:59:48.986Z,1.13
2023-03-30T12:04:57.795Z,0.85
2023-03-30T12:10:06.099Z,1.60
2023-03-30T12:15:26.631Z,1.42
2023-03-30T12:20:38.294Z,1.70
2023-03-30T12:26:01.351Z,2.00
2023-03-30T12:31:04.480Z,1.73
2023-03-30T12:36:26.054Z,1.80
2023-03-30T12:41:39.925Z,1.65
2023-03-30T12:46:51.397Z,1.75
2023-03-30T12:52:09.556Z,1.85
2023-03-30T12:57:28.141Z,2.42
2023-03-30T13:02:56.823Z,1.70
2023-03-30T13:08:05.536Z,2.92
2023-03-30T13:13:19.004Z,2.83
2023-03-30T13:18:36.766Z,2.65
2023-03-30T13:23:40.898Z,3.35
2023-03-30T13:28:58.144Z,2.92
2023-03-30T13:34:08.759Z,3.38
2023-03-30T13:39:22.747Z,2.50
2023-03-30T13:44:42.491Z,2.13
2023-03-30T13:49:53.948Z,2.50
2023-03-30T13:54:58.552Z,2.22
2023-03-30T14:00:09.465Z,2.33
2023-03-30T14:05:14.453Z,2.05
2023-03-30T14:10:20.754Z,2.22
2023-03-30T14:15:27.292Z,2.53
2023-03-30T14:20:45.475Z,1.85
2023-03-30T14:25:49.731Z,2.60
2023-03-30T14:30:54.345Z,2.60
2023-03-30T14:35:59.479Z,2.22
2023-03-30T14:41:08.370Z,3.42
2023-03-30T14:46:13.541Z,1.90
2023-03-30T14:51:25.520Z,2.80
2023-03-30T14:56:30.957Z,1.83
2023-03-30T15:01:35.105Z,2.05
2023-03-30T15:06:39.127Z,2.30
2023-03-30T15:11:45.778Z,1.38
2023-03-30T15:16:53.615Z,1.50
2023-03-30T15:21:59.508Z,1.20
2023-03-30T15:27:06.612Z,1.15
2023-03-30T15:32:16.486Z,1.55
2023-03-30T15:37:24.087Z,0.95
2023-03-30T15:42:30.866Z,1.10
2023-03-30T15:47:34.694Z,1.10
2023-03-30T15:52:42.948Z,1.48
2023-03-30T15:57:49.099Z,1.60
2023-03-30T16:02:57.637Z,1.90
2023-03-30T16:08:01.303Z,2.00
2023-03-30T16:13:07.000Z,1.90
2023-03-30T16:18:11.756Z,1.67
2023-03-30T16:23:14.623Z,1.33
2023-03-30T16:28:19.444Z,1.77
2023-03-30T16:33:22.393Z,3.15
2023-03-30T16:38:25.409Z,2.53
2023-03-30T16:43:29.609Z,2.47
2023-03-30T16:48:32.423Z,2.78
2023-03-30T16:53:35.458Z,2.28
2023-03-30T16:58:39.878Z,2.13
2023-03-30T17:03:42.758Z,2.55
2023-03-30T17:08:46.352Z,2.08
2023-03-30T17:13:51.261Z,2.00
2023-03-30T17:18:54.046Z,2.45
2023-03-30T17:23:56.879Z,2.08
2023-03-30T17:29:01.185Z,1.98
2023-03-30T17:34:04.100Z,1.65
2023-03-30T17:39:07.224Z,1.73
2023-03-30T17:44:11.482Z,2.20
2023-03-30T17:49:17.885Z,2.58
2023-03-30T17:54:20.847Z,2.78
2023-03-30T17:59:25.208Z,2.78
2023-03-30T18:04:28.589Z,3.00
2023-03-30T18:09:31.492Z,2.95
2023-03-30T18:14:35.677Z,3.53
2023-03-30T18:19:38.466Z,3.20
2023-03-30T18:24:42.496Z,3.55
2023-03-30T18:29:46.726Z,3.63
2023-03-30T18:34:49.489Z,3.65
2023-03-30T18:39:52.255Z,4.40
2023-03-30T18:44:56.444Z,5.30
2023-03-30T18:49:59.370Z,4.63
2023-03-30T18:55:02.159Z,4.68
2023-03-30T19:00:15.290Z,4.80
2023-03-30T19:05:20.602Z,4.90
2023-03-30T19:10:27.435Z,5.30
2023-03-30T19:15:33.714Z,4.13
2023-03-30T19:20:39.876Z,2.85
2023-03-30T19:25:43.905Z,3.55
2023-03-30T19:30:48.505Z,2.88
2023-03-30T19:35:51.359Z,3.70
2023-03-30T19:40:54.174Z,3.00
2023-03-30T19:45:58.438Z,4.18
2023-03-30T19:51:02.271Z,3.08
2023-03-30T19:56:10.254Z,2.88
2023-03-30T20:01:14.539Z,2.30
2023-03-30T20:06:17.329Z,2.10
2023-03-30T20:11:20.066Z,1.35
2023-03-30T20:16:25.936Z,1.77
2023-03-30T20:21:28.996Z,2.03
2023-03-30T20:26:32.681Z,2.30
2023-03-30T20:31:36.900Z,2.83
2023-03-30T20:36:40.419Z,1.92
2023-03-30T20:41:43.250Z,2.70
2023-03-30T20:46:47.475Z,2.60
2023-03-30T20:51:50.718Z,1.80
2023-03-30T20:56:53.532Z,2.00
2023-03-30T21:01:59.167Z,2.30
2023-03-30T21:07:02.131Z,2.78
2023-03-30T21:12:05.350Z,1.70
2023-03-30T21:17:09.680Z,2.08
2023-03-30T21:22:12.553Z,2.50
2023-03-30T21:27:15.650Z,2.60
2023-03-30T21:32:19.862Z,3.10
2023-03-30T21:37:22.653Z,3.42
2023-03-30T21:42:25.638Z,3.17
2023-03-30T21:47:29.809Z,3.00
2023-03-30T21:52:33.538Z,3.00
2023-03-30T21:57:36.379Z,4.18
2023-03-30T22:02:40.601Z,3.15
2023-03-30T22:07:43.504Z,3.28
2023-03-30T22:12:46.390Z,2.75
2023-03-30T22:17:50.543Z,3.05
2023-03-30T22:22:53.345Z,3.30
2023-03-30T22:27:57.888Z,2.72
2023-03-30T22:33:02.529Z,2.88
2023-03-30T22:38:05.711Z,2.78
2023-03-30T22:43:09.478Z,3.63
2023-03-30T22:48:13.697Z,3.03
2023-03-30T22:53:16.504Z,2.97
2023-03-30T22:58:19.247Z,2.83
2023-03-30T23:03:23.490Z,2.80
2023-03-30T23:08:26.306Z,3.88
2023-03-30T23:13:29.246Z,3.13
2023-03-30T23:18:33.940Z,2.30
2023-03-30T23:23:37.744Z,2.55
2023-03-30T23:28:42.294Z,2.53
2023-03-30T23:33:46.816Z,2.28
2023-03-30T23:38:51.582Z,1.85
2023-03-30T23:43:54.370Z,2.05
2023-03-30T23:48:58.577Z,1.65
2023-03-30T23:54:06.181Z,1.88
2023-03-30T23:59:10.094Z,2.10
